Trombudo Central, Brazil
Current Conditions -  °F | °C
As of 6:00 PM on Sunday 25 Jan 2015 (Local Time) from SBFL Reporting Station
Few Clouds Few Clouds  
Wind Chill: 81°   Ceiling: Unl
Heat Index: 84°   Visibility: 6mi
Dew Point: 70°   Wind: 8mph
Humidity: 70%   Direction: 340°NNW
Pressure: 29.85"   Gusts: NA
Location:  27.3°S, 49.77°W
Report Text: SBFL 252000Z 34007KT 9999 FEW035TCU 27/21 Q1011
Loading
Personal Weather Stations






























Interactive Weather Map New forecast layout! Learn more

10-Day Weather Forecast

Advertisements
Track Severe Weather on mobile